createdAt,value
2019-06-26T00:00:18.899Z,12.4
2019-06-26T00:05:17.789Z,10.6
2019-06-26T00:10:16.824Z,12.8
2019-06-26T00:15:17.725Z,12.8
2019-06-26T00:20:16.833Z,10.1
2019-06-26T00:25:17.692Z,12.1
2019-06-26T00:30:18.623Z,14.2
2019-06-26T00:35:17.531Z,11.2
2019-06-26T00:40:17.561Z,11.4
2019-06-26T00:45:17.434Z,15.6
2019-06-26T00:50:17.331Z,11.5
2019-06-26T00:55:17.221Z,14.5
2019-06-26T01:00:17.110Z,12
2019-06-26T01:05:16.979Z,8.8
2019-06-26T01:10:18.216Z,13.2
2019-06-26T01:15:17.120Z,10.3
2019-06-26T01:20:17.377Z,13.7
2019-06-26T01:25:17.290Z,11.8
2019-06-26T01:30:17.169Z,14.3
2019-06-26T01:35:22.047Z,15.9
2019-06-26T01:40:17.107Z,14.5
2019-06-26T01:45:18.077Z,13.1
2019-06-26T01:50:16.985Z,12.1
2019-06-26T01:55:16.865Z,16.2
2019-06-26T02:00:17.784Z,13
2019-06-26T02:05:18.665Z,12.2
2019-06-26T02:10:18.367Z,12.9
2019-06-26T02:15:17.274Z,9.6
2019-06-26T02:20:17.317Z,11.3
2019-06-26T02:25:17.226Z,12.4
2019-06-26T02:30:17.145Z,14.2
2019-06-26T02:35:17.033Z,12.6
2019-06-26T02:40:17.196Z,12.8
2019-06-26T02:45:22.288Z,13.9
2019-06-26T02:50:17.212Z,12.2
2019-06-26T02:55:17.116Z,14.4
2019-06-26T03:00:17.024Z,14.3
2019-06-26T03:05:21.930Z,13.9
2019-06-26T03:10:17.011Z,14.1
2019-06-26T03:15:21.922Z,12
2019-06-26T03:20:17.039Z,12.1
2019-06-26T03:25:16.939Z,16.5
2019-06-26T03:30:16.949Z,13.3
2019-06-26T03:35:17.908Z,14.2
2019-06-26T03:40:17.109Z,17
2019-06-26T03:45:26.676Z,16.8
2019-06-26T03:50:17.656Z,15.3
2019-06-26T03:55:17.525Z,20.5
2019-06-26T04:00:17.427Z,16.7
2019-06-26T04:05:17.328Z,15.5
2019-06-26T04:10:17.356Z,13.2
2019-06-26T04:15:17.265Z,13
2019-06-26T04:20:17.415Z,13.9
2019-06-26T04:25:17.304Z,14.8
2019-06-26T04:30:17.215Z,15.3
2019-06-26T04:35:17.095Z,16.1
2019-06-26T04:40:20.677Z,16.7
2019-06-26T04:45:17.813Z,18.8
2019-06-26T04:50:22.732Z,17.1
2019-06-26T04:55:17.613Z,18.3
2019-06-26T05:00:17.626Z,13.8
2019-06-26T05:05:17.682Z,13.7
2019-06-26T05:10:17.710Z,12.8
2019-06-26T05:15:18.631Z,16.6
2019-06-26T05:20:17.757Z,11.4
2019-06-26T05:25:20.467Z,9.7
2019-06-26T05:30:17.419Z,11.1
2019-06-26T05:35:22.526Z,13.1
2019-06-26T05:40:22.713Z,13.1
2019-06-26T05:45:22.663Z,15.2
2019-06-26T05:50:18.573Z,14
2019-06-26T05:55:27.530Z,10.7
2019-06-26T06:00:17.638Z,10.2
2019-06-26T06:05:17.549Z,13.6
2019-06-26T06:10:17.629Z,12.1
2019-06-26T06:15:17.737Z,11.9
2019-06-26T06:20:17.975Z,14.1
2019-06-26T06:25:17.239Z,14.4
2019-06-26T06:30:18.266Z,13.2
2019-06-26T06:35:17.268Z,15.5
2019-06-26T06:40:18.573Z,16.2
2019-06-26T06:45:17.528Z,15.5
2019-06-26T06:50:17.624Z,12.7
2019-06-26T06:55:17.872Z,13.4
2019-06-26T07:00:22.826Z,15.4
2019-06-26T07:05:16.998Z,12.5
2019-06-26T07:10:22.323Z,12.9
2019-06-26T07:15:17.324Z,9.8
2019-06-26T07:20:18.465Z,10.8
2019-06-26T07:25:22.571Z,13.8
2019-06-26T07:30:17.902Z,9.3
2019-06-26T07:35:19.000Z,10.6
2019-06-26T07:40:17.371Z,10.7
2019-06-26T07:45:18.397Z,10.9
2019-06-26T07:50:17.341Z,8.8
2019-06-26T07:55:17.484Z,11
2019-06-26T08:00:22.492Z,8.9
2019-06-26T08:05:17.378Z,9.1
2019-06-26T08:10:17.641Z,8.7
2019-06-26T08:15:17.690Z,8.6
2019-06-26T08:20:23.077Z,10.9
2019-06-26T08:25:17.174Z,5.6
2019-06-26T08:30:17.066Z,7.4
2019-06-26T08:35:22.187Z,9.5
2019-06-26T08:40:17.459Z,8.2
2019-06-26T08:45:17.514Z,9.1
2019-06-26T08:50:17.395Z,8.3
2019-06-26T08:55:17.298Z,6.2
2019-06-26T09:00:17.574Z,9.2
2019-06-26T09:05:17.553Z,9.8
2019-06-26T09:10:17.618Z,8.3
2019-06-26T09:15:17.494Z,5.8
2019-06-26T09:20:17.685Z,11.3
2019-06-26T09:25:22.779Z,8.6
2019-06-26T09:30:17.714Z,7.4
2019-06-26T09:35:17.981Z,8.9
2019-06-26T09:40:22.089Z,7.4
2019-06-26T09:45:17.001Z,7.5
2019-06-26T09:50:16.881Z,6.6
2019-06-26T09:55:17.770Z,5.3
2019-06-26T10:00:17.788Z,3.9
2019-06-26T10:05:17.730Z,5.3
2019-06-26T10:10:17.968Z,6.5
2019-06-26T10:15:21.882Z,5.7
2019-06-26T10:20:18.040Z,3
2019-06-26T10:25:16.968Z,7
2019-06-26T10:30:16.892Z,3.8
2019-06-26T10:35:16.808Z,3.1
2019-06-26T10:40:17.186Z,4.1
2019-06-26T10:45:17.210Z,4.4
2019-06-26T10:50:17.178Z,4.1
2019-06-26T10:55:17.063Z,4.3
2019-06-26T11:00:16.961Z,3.9
2019-06-26T11:05:17.077Z,5.6
2019-06-26T11:10:17.114Z,2.5
2019-06-26T11:15:17.198Z,3.6
2019-06-26T11:20:17.277Z,4.9
2019-06-26T11:25:18.275Z,3.5
2019-06-26T11:30:17.801Z,7.1
2019-06-26T11:35:18.081Z,4.3
2019-06-26T11:40:17.115Z,3.7
2019-06-26T11:45:17.020Z,3.3
2019-06-26T11:50:16.932Z,9.2
2019-06-26T11:55:16.790Z,5.4
2019-06-26T12:00:17.679Z,2.7
2019-06-26T12:05:17.600Z,6.2
2019-06-26T12:10:17.631Z,4.8
2019-06-26T12:15:17.558Z,5.4
2019-06-26T12:20:20.011Z,4.9
2019-06-26T12:25:22.209Z,3.2
2019-06-26T12:30:17.076Z,4.8
2019-06-26T12:35:17.037Z,7.7
2019-06-26T12:40:17.096Z,7.4
2019-06-26T12:45:17.218Z,4.2
2019-06-26T12:50:35.637Z,5.3
2019-06-26T12:55:16.836Z,5
2019-06-26T13:00:17.707Z,5.8
2019-06-26T13:05:17.654Z,3.4
2019-06-26T13:10:17.687Z,5.4
2019-06-26T13:15:17.581Z,5.9
2019-06-26T13:20:17.743Z,4.7
2019-06-26T13:25:17.633Z,8
2019-06-26T13:30:17.629Z,3.6
2019-06-26T13:35:17.696Z,7.6
2019-06-26T13:40:17.912Z,4.6
2019-06-26T13:45:16.761Z,5.5
2019-06-26T13:50:17.621Z,4.2
2019-06-26T13:55:17.521Z,5
2019-06-26T14:00:17.419Z,4.9
2019-06-26T14:05:17.295Z,6.4
2019-06-26T14:10:17.374Z,5.4
2019-06-26T14:15:17.381Z,5
2019-06-26T14:20:17.509Z,4.7
2019-06-26T14:25:17.416Z,11.1
2019-06-26T14:30:17.345Z,3.9
2019-06-26T14:35:17.276Z,4.5
2019-06-26T14:40:17.298Z,2.5
2019-06-26T14:45:17.155Z,5.3
2019-06-26T14:50:17.029Z,2.9
2019-06-26T14:55:16.893Z,4.4
2019-06-26T15:00:17.764Z,5.5
2019-06-26T15:05:17.652Z,5
2019-06-26T15:10:17.675Z,5
2019-06-26T15:15:17.562Z,5.3
2019-06-26T15:20:17.652Z,5.1
2019-06-26T15:25:17.533Z,6.1
2019-06-26T15:30:17.441Z,5.9
2019-06-26T15:35:17.351Z,5.6
2019-06-26T15:40:17.393Z,5.3
2019-06-26T15:45:21.099Z,7.4
2019-06-26T15:50:17.059Z,4.6
2019-06-26T15:55:16.994Z,2.7
2019-06-26T16:00:17.078Z,4.8
2019-06-26T16:05:16.936Z,4.8
2019-06-26T16:10:16.952Z,3
2019-06-26T16:15:16.857Z,5.3
2019-06-26T16:20:16.924Z,4.8
2019-06-26T16:25:16.808Z,5.2
2019-06-26T16:30:17.686Z,5
2019-06-26T16:35:17.555Z,4.1
2019-06-26T16:40:17.608Z,6.4
2019-06-26T16:45:17.485Z,5.2
2019-06-26T16:50:17.413Z,3.2
2019-06-26T16:55:17.283Z,4.5
2019-06-26T17:00:17.151Z,4.2
2019-06-26T17:05:17.182Z,4.9
2019-06-26T17:10:17.243Z,1.8
2019-06-26T17:15:17.096Z,3.5
2019-06-26T17:20:17.174Z,1.2
2019-06-26T17:25:17.053Z,2
2019-06-26T17:30:17.082Z,2.3
2019-06-26T17:35:16.950Z,0.9
2019-06-26T17:40:17.130Z,1.5
2019-06-26T17:45:17.170Z,1.5
2019-06-26T17:50:17.208Z,1.5
2019-06-26T17:55:17.249Z,1.8
2019-06-26T18:00:17.146Z,3.3
2019-06-26T18:05:22.018Z,1.6
2019-06-26T18:10:17.176Z,0.8
2019-06-26T18:15:17.198Z,1.4
2019-06-26T18:20:17.255Z,1.3
2019-06-26T18:25:17.158Z,1.2
2019-06-26T18:30:17.116Z,0.6
2019-06-26T18:35:18.054Z,1.8
2019-06-26T18:40:17.061Z,3.2
2019-06-26T18:45:17.106Z,1.5
2019-06-26T18:50:17.006Z,0.9
2019-06-26T18:55:17.259Z,2.4
2019-06-26T19:00:17.292Z,2.3
2019-06-26T19:05:17.193Z,2
2019-06-26T19:10:22.226Z,2.5
2019-06-26T19:15:17.158Z,1.4
2019-06-26T19:20:17.409Z,3.8
2019-06-26T19:25:17.460Z,4.3
2019-06-26T19:30:17.539Z,0.7
2019-06-26T19:35:20.420Z,3.2
2019-06-26T19:40:17.565Z,2
2019-06-26T19:45:17.619Z,2.4
2019-06-26T19:50:17.628Z,3.9
2019-06-26T19:55:17.681Z,2.4
2019-06-26T20:00:17.578Z,2.8
2019-06-26T20:05:17.608Z,1.7
2019-06-26T20:10:17.783Z,1.5
2019-06-26T20:15:17.667Z,2.7
2019-06-26T20:20:17.884Z,0.9
2019-06-26T20:25:17.859Z,1
2019-06-26T20:30:17.734Z,1
2019-06-26T20:35:17.634Z,1.9
2019-06-26T20:40:17.662Z,1.9
2019-06-26T20:45:17.703Z,0.6
2019-06-26T20:50:17.854Z,0.8
2019-06-26T20:55:17.786Z,1.4
2019-06-26T21:00:17.663Z,2.1
2019-06-26T21:05:17.542Z,0.5
2019-06-26T21:10:17.707Z,2.4
2019-06-26T21:15:17.761Z,0.9
2019-06-26T21:20:16.823Z,0.5
2019-06-26T21:25:22.751Z,1.1
2019-06-26T21:30:16.994Z,1
2019-06-26T21:35:16.870Z,1.7
2019-06-26T21:40:17.022Z,1.8
2019-06-26T21:45:20.370Z,2.5
2019-06-26T21:50:17.268Z,2.4
2019-06-26T21:55:34.871Z,2.4
2019-06-26T22:00:17.129Z,2
2019-06-26T22:05:17.199Z,1.5
2019-06-26T22:10:17.410Z,3.1
2019-06-26T22:15:17.296Z,1.1
2019-06-26T22:20:17.518Z,3.2
2019-06-26T22:25:23.715Z,1.4
2019-06-26T22:30:17.616Z,0.9
2019-06-26T22:35:17.483Z,0.7
2019-06-26T22:40:17.714Z,1.7
2019-06-26T22:45:17.583Z,0.7
2019-06-26T22:50:17.506Z,2.9
2019-06-26T22:55:17.573Z,3
2019-06-26T23:00:17.690Z,2.9
2019-06-26T23:05:17.753Z,1.8
2019-06-26T23:10:17.984Z,1.5
2019-06-26T23:15:16.887Z,1.8
2019-06-26T23:20:16.982Z,2.9
2019-06-26T23:25:16.912Z,3
2019-06-26T23:30:16.979Z,0.8
2019-06-26T23:35:16.909Z,1.7
2019-06-26T23:40:22.079Z,0.9
2019-06-26T23:45:17.167Z,3.5
2019-06-26T23:50:17.049Z,2.5
2019-06-26T23:55:16.987Z,2.8
